Time;durP1;ratioP1;P1;durP2;ratioP2;P2;SDS_P1;SDS_P2;PMS_P1;PMS_P2;Temp;Humidity;BMP_temperature;BMP_pressure;BME280_temperature;BME280_humidity;BME280_pressure;Samples;Min_cycle;Max_cycle;Signal;HPM_P1;HPM_P2
2022/09/07 00:01:47;;;;;;;4.38;2.80;;;;;;;18.13;75.72;101077.47;6272600;28;20053;-73
2022/09/07 00:04:49;;;;;;;5.63;3.00;;;;;;;18.13;76.41;101077.47;6272271;28;20051;-73
2022/09/07 00:07:50;;;;;;;4.43;3.20;;;;;;;18.16;75.90;101082.50;6272730;28;20045;-73
2022/09/07 00:10:55;;;;;;;8.07;3.03;;;;;;;18.16;75.86;101087.84;6272599;28;20053;-73
2022/09/07 00:13:56;;;;;;;5.18;2.70;;;;;;;18.11;76.02;101078.53;6272443;28;20048;-73
2022/09/07 00:16:57;;;;;;;5.85;3.42;;;;;;;18.12;76.44;101091.72;6272614;28;20052;-73
2022/09/07 00:19:59;;;;;;;4.15;2.85;;;;;;;18.11;76.02;101086.50;6272271;28;20059;-73
2022/09/07 00:23:00;;;;;;;5.60;3.03;;;;;;;18.10;76.34;101079.50;6272387;28;20052;-73
2022/09/07 00:26:05;;;;;;;3.72;2.58;;;;;;;18.11;76.80;101065.22;6272240;28;20511;-73
2022/09/07 00:29:07;;;;;;;6.32;3.45;;;;;;;18.09;76.83;101054.72;6272424;28;20053;-75
2022/09/07 00:32:08;;;;;;;4.78;3.13;;;;;;;18.08;77.00;101057.53;6272286;28;20048;-73
2022/09/07 00:35:11;;;;;;;9.27;3.88;;;;;;;18.05;76.84;101039.97;6272163;28;20053;-73
2022/09/07 00:38:12;;;;;;;4.45;2.65;;;;;;;18.02;77.06;101031.41;6272355;28;20113;-73
2022/09/07 00:41:16;;;;;;;4.65;3.30;;;;;;;17.98;77.17;101036.94;6272110;28;20053;-74
2022/09/07 00:44:55;;;;;;;3.80;3.00;;;;;;;18.02;77.49;101040.22;6271416;28;20048;-73
2022/09/07 00:48:01;;;;;;;3.25;2.45;;;;;;;18.04;76.79;101037.44;6272243;28;20507;-73
2022/09/07 00:51:06;;;;;;;3.65;2.80;;;;;;;18.04;76.89;101030.31;6271554;28;20419;-74
2022/09/07 00:54:11;;;;;;;4.05;2.90;;;;;;;18.04;77.36;101030.31;6271778;28;20049;-73
2022/09/07 00:57:15;;;;;;;5.40;3.03;;;;;;;18.03;77.27;101030.41;6272412;28;20052;-73
2022/09/07 01:00:17;;;;;;;4.35;2.90;;;;;;;18.00;77.50;101045.66;6271836;28;20128;-73
2022/09/07 01:03:22;;;;;;;6.65;3.40;;;;;;;17.96;78.00;101041.56;6272020;28;20048;-73
2022/09/07 01:06:27;;;;;;;8.25;3.58;;;;;;;17.96;77.88;101041.56;6271464;28;20072;-73
2022/09/07 01:09:29;;;;;;;4.88;2.65;;;;;;;17.95;78.64;101042.53;6272424;28;20044;-73
2022/09/07 01:12:32;;;;;;;3.67;2.72;;;;;;;17.98;78.81;101042.28;6271774;28;20055;-73
2022/09/07 01:15:42;;;;;;;6.30;3.55;;;;;;;17.92;79.49;101050.75;6271273;28;20045;-73
2022/09/07 01:18:52;;;;;;;5.88;3.30;;;;;;;17.92;79.34;101049.91;6272109;28;20602;-73
2022/09/07 01:22:05;;;;;;;6.15;3.58;;;;;;;17.94;79.14;101055.94;6271432;28;20053;-73
2022/09/07 01:25:10;;;;;;;3.55;2.75;;;;;;;17.96;79.45;101054.00;6271612;28;20049;-73
2022/09/07 01:28:18;;;;;;;12.10;3.80;;;;;;;17.93;79.80;101047.09;6271829;28;20052;-73
2022/09/07 01:31:29;;;;;;;5.10;2.78;;;;;;;17.94;79.65;101042.63;6271225;28;20057;-73
2022/09/07 01:34:31;;;;;;;7.07;2.95;;;;;;;17.93;79.55;101036.47;6261792;28;20058;-73
2022/09/07 01:37:48;;;;;;;7.50;2.97;;;;;;;17.96;79.60;101025.59;6249011;28;20045;-73
2022/09/07 01:40:57;;;;;;;6.03;3.58;;;;;;;17.92;79.57;101029.47;6246064;28;20061;-73
2022/09/07 01:44:06;;;;;;;4.18;2.95;;;;;;;17.92;79.51;101020.66;6248687;28;20068;-73
2022/09/07 01:47:13;;;;;;;4.82;3.10;;;;;;;17.89;80.05;101026.19;6256042;28;20052;-73
2022/09/07 01:50:19;;;;;;;4.82;2.90;;;;;;;17.87;79.83;101026.34;6257394;28;20055;-73
2022/09/07 01:53:26;;;;;;;4.20;3.17;;;;;;;17.86;79.84;101027.31;6257560;28;20049;-73
2022/09/07 01:56:31;;;;;;;4.30;2.85;;;;;;;17.84;80.36;101015.94;6259990;28;20057;-73
2022/09/07 01:59:36;;;;;;;4.15;3.03;;;;;;;17.84;80.83;101023.06;6262027;28;20048;-73
2022/09/07 02:02:42;;;;;;;9.27;2.97;;;;;;;17.82;81.17;101015.22;6261538;28;20049;-73
2022/09/07 02:06:08;;;;;;;5.85;3.35;;;;;;;17.82;81.42;101015.22;6260070;28;20064;-73
2022/09/07 02:09:14;;;;;;;8.27;3.20;;;;;;;17.84;81.02;101017.75;6260115;28;20045;-73
2022/09/07 02:12:21;;;;;;;5.30;3.47;;;;;;;17.85;81.33;101015.00;6259677;28;20060;-73
2022/09/07 02:15:29;;;;;;;5.40;3.20;;;;;;;17.83;81.63;101032.03;6261083;28;20049;-73
2022/09/07 02:18:37;;;;;;;6.20;3.60;;;;;;;17.84;81.81;101031.88;6260252;28;20044;-73
2022/09/07 02:21:44;;;;;;;5.55;3.55;;;;;;;17.88;81.59;101028.03;6260057;28;20037;-73
2022/09/07 02:24:50;;;;;;;4.80;3.40;;;;;;;17.86;81.34;101023.81;6260468;28;20048;-73
2022/09/07 02:27:57;;;;;;;7.25;3.33;;;;;;;17.84;82.19;101015.09;6262184;28;20045;-73
2022/09/07 02:31:00;;;;;;;5.32;2.88;;;;;;;17.84;82.18;101013.28;6259403;28;20045;-73
2022/09/07 02:34:02;;;;;;;4.70;3.38;;;;;;;17.81;82.13;101007.38;6260494;28;20056;-73
2022/09/07 02:37:07;;;;;;;8.48;3.58;;;;;;;17.77;82.35;101001.47;6254172;28;20053;-74
2022/09/07 02:40:10;;;;;;;5.40;3.20;;;;;;;17.71;82.51;100984.16;6249766;28;20072;-73
2022/09/07 02:43:11;;;;;;;5.82;3.50;;;;;;;17.70;82.81;100994.88;6281649;22;20363;-72
2022/09/07 02:46:25;;;;;;;6.05;3.80;;;;;;;17.65;83.63;101015.69;6249077;28;20041;-72
2022/09/07 02:49:38;;;;;;;6.78;3.63;;;;;;;17.66;84.03;101070.53;6266747;28;20492;-72
2022/09/07 02:52:51;;;;;;;3.95;2.90;;;;;;;17.70;83.35;101087.94;6265339;28;20099;-72
2022/09/07 02:56:05;;;;;;;4.47;3.38;;;;;;;17.66;83.44;101086.47;6248819;28;20053;-72
2022/09/07 02:59:19;;;;;;;4.10;2.97;;;;;;;17.67;83.88;101104.97;6249296;28;20055;-74
2022/09/07 03:02:28;;;;;;;7.25;4.40;;;;;;;17.64;84.89;101094.56;6248804;28;20057;-72
2022/09/07 03:05:39;;;;;;;4.68;3.60;;;;;;;17.68;84.87;101072.09;6247856;28;20056;-72
2022/09/07 03:08:46;;;;;;;6.43;3.65;;;;;;;17.73;84.93;101079.72;6248719;28;20049;-72
2022/09/07 03:11:48;;;;;;;6.45;3.63;;;;;;;17.67;85.60;101075.75;6248611;28;20050;-72
2022/09/07 03:14:49;;;;;;;6.35;3.35;;;;;;;17.71;85.42;101073.66;6248276;28;20060;-72
2022/09/07 03:17:52;;;;;;;9.65;3.78;;;;;;;17.71;86.39;101071.00;6248904;28;20057;-72
2022/09/07 03:20:55;;;;;;;5.95;3.70;;;;;;;17.70;86.08;101058.69;6248203;28;20560;-72
2022/09/07 03:23:56;;;;;;;7.53;3.38;;;;;;;17.67;86.56;101043.84;6248320;28;20057;-72
2022/09/07 03:26:57;;;;;;;5.05;3.70;;;;;;;17.68;86.70;101028.72;6248257;28;20420;-72
2022/09/07 03:29:59;;;;;;;6.47;3.72;;;;;;;17.65;86.98;101032.47;6248491;28;20421;-72
2022/09/07 03:33:02;;;;;;;5.93;3.47;;;;;;;17.64;86.90;101035.25;6248305;28;20056;-72
2022/09/07 03:36:03;;;;;;;8.10;3.55;;;;;;;17.60;87.56;101039.13;6248094;28;20052;-72
2022/09/07 03:39:06;;;;;;;5.38;3.45;;;;;;;17.59;88.66;101043.59;6248236;28;20072;-72
2022/09/07 03:42:07;;;;;;;6.47;3.88;;;;;;;17.58;88.34;101041.91;6247729;28;20091;-72
2022/09/07 03:45:10;;;;;;;10.75;3.85;;;;;;;17.55;88.97;101026.19;6247611;28;20053;-72
2022/09/07 03:48:12;;;;;;;7.65;3.65;;;;;;;17.53;89.21;101011.31;6247848;28;20079;-72
2022/09/07 03:51:16;;;;;;;4.85;3.42;;;;;;;17.55;90.46;101025.34;6247523;28;20464;-72
2022/09/07 03:54:17;;;;;;;7.47;4.20;;;;;;;17.54;90.75;101039.59;6247516;28;20045;-72
2022/09/07 03:57:19;;;;;;;10.15;3.83;;;;;;;17.53;90.30;101038.72;6247922;28;20046;-72
2022/09/07 04:00:20;;;;;;;6.78;3.30;;;;;;;17.51;90.36;101035.38;6247631;28;20057;-72
2022/09/07 04:03:23;;;;;;;6.63;4.10;;;;;;;17.47;90.51;101034.75;6247876;28;20045;-71
2022/09/07 04:06:24;;;;;;;6.13;3.53;;;;;;;17.45;91.24;101028.72;6247162;28;20041;-72
2022/09/07 04:09:26;;;;;;;9.18;4.28;;;;;;;17.44;91.39;101035.00;6247752;28;20053;-71
2022/09/07 04:12:27;;;;;;;5.63;3.83;;;;;;;17.41;92.13;101048.50;6247189;28;20511;-72
2022/09/07 04:15:29;;;;;;;4.55;3.63;;;;;;;17.41;92.56;101047.69;6247071;28;20524;-71
2022/09/07 04:18:31;;;;;;;6.55;3.75;;;;;;;17.43;92.59;101059.84;6247521;28;20052;-72
2022/09/07 04:21:33;;;;;;;6.50;3.38;;;;;;;17.44;92.09;101069.56;6247023;28;20053;-72
2022/09/07 04:24:35;;;;;;;6.15;4.22;;;;;;;17.41;92.29;101077.75;6246849;28;20046;-72
2022/09/07 04:27:36;;;;;;;6.38;4.40;;;;;;;17.36;92.81;101066.63;6247073;28;20046;-71
2022/09/07 04:30:37;;;;;;;5.03;3.60;;;;;;;17.35;93.52;101072.03;6246355;28;20412;-72
2022/09/07 04:33:40;;;;;;;7.85;4.55;;;;;;;17.35;94.05;101069.38;6246895;28;20056;-72
2022/09/07 04:36:41;;;;;;;6.82;4.25;;;;;;;17.32;96.26;101069.63;6247080;28;20053;-72
2022/09/07 04:39:43;;;;;;;8.75;3.92;;;;;;;17.25;98.37;101074.56;6246748;28;20056;-72
2022/09/07 04:42:44;;;;;;;8.50;4.32;;;;;;;17.19;100.00;101075.03;6247049;28;20049;-72
2022/09/07 04:45:45;;;;;;;6.90;4.75;;;;;;;17.15;100.00;101070.91;6246327;28;20524;-72
2022/09/07 04:48:49;;;;;;;6.35;4.45;;;;;;;17.18;100.00;101060.91;6247158;28;20099;-72
2022/09/07 04:51:50;;;;;;;6.43;4.57;;;;;;;17.20;100.00;101058.13;6246544;28;20056;-71
2022/09/07 04:54:52;;;;;;;6.85;4.95;;;;;;;17.21;100.00;101052.72;6246324;28;20053;-71
2022/09/07 04:57:53;;;;;;;5.60;3.83;;;;;;;17.24;100.00;101056.94;6246661;28;20046;-71
2022/09/07 05:00:55;;;;;;;7.32;4.43;;;;;;;17.21;100.00;101062.47;6246217;28;20053;-72
2022/09/07 05:03:59;;;;;;;7.97;4.85;;;;;;;17.21;100.00;101067.78;6246379;28;20053;-72
2022/09/07 05:07:00;;;;;;;6.05;4.20;;;;;;;17.19;100.00;101075.88;6246379;28;20045;-72
2022/09/07 05:10:01;;;;;;;9.45;4.95;;;;;;;17.18;100.00;101068.03;6246350;28;20053;-71
2022/09/07 05:13:02;;;;;;;8.73;4.70;;;;;;;17.18;100.00;101081.31;6246293;28;20045;-72
2022/09/07 05:16:08;;;;;;;10.07;4.85;;;;;;;17.13;100.00;101073.69;6246332;28;20068;-71
2022/09/07 05:19:13;;;;;;;7.35;4.53;;;;;;;17.16;100.00;101077.91;6246398;28;20057;-72
2022/09/07 05:22:14;;;;;;;6.85;4.72;;;;;;;17.16;100.00;101085.88;6246268;28;20049;-72
2022/09/07 05:25:15;;;;;;;8.85;5.88;;;;;;;17.13;100.00;101094.09;6245952;28;20053;-72
2022/09/07 05:28:17;;;;;;;10.15;5.40;;;;;;;17.11;100.00;101067.63;6246090;28;20045;-72
2022/09/07 05:31:20;;;;;;;8.35;5.75;;;;;;;17.09;100.00;101069.56;6250969;28;20076;-71
2022/09/07 05:34:23;;;;;;;7.80;4.47;;;;;;;17.05;100.00;101046.03;6250721;28;20410;-71
2022/09/07 05:37:24;;;;;;;10.20;5.15;;;;;;;16.99;100.00;101036.72;6250988;28;20440;-71
2022/09/07 05:40:26;;;;;;;7.50;5.18;;;;;;;16.98;100.00;101019.06;6250601;28;20056;-71
2022/09/07 05:43:27;;;;;;;7.00;5.50;;;;;;;16.97;100.00;101010.25;6250768;28;20056;-71
2022/09/07 05:46:28;;;;;;;8.07;5.18;;;;;;;16.99;100.00;101010.16;6250437;28;20046;-71
2022/09/07 05:49:31;;;;;;;10.80;5.22;;;;;;;16.95;100.00;101011.34;6250620;28;20053;-71
2022/09/07 05:52:33;;;;;;;11.63;6.15;;;;;;;16.97;100.00;101017.38;6250285;28;20515;-70
2022/09/07 05:55:34;;;;;;;9.00;5.43;;;;;;;17.02;100.00;101019.69;6250338;28;20049;-71
2022/09/07 05:58:36;;;;;;;8.70;5.65;;;;;;;17.01;100.00;101004.72;6250621;28;20056;-71
2022/09/07 06:01:38;;;;;;;10.23;6.22;;;;;;;17.02;100.00;100993.13;6250116;28;20049;-71
2022/09/07 06:04:40;;;;;;;7.10;5.07;;;;;;;17.09;100.00;100999.69;6250224;28;20056;-71
2022/09/07 06:07:42;;;;;;;9.60;5.35;;;;;;;17.07;100.00;100973.22;6250170;28;20052;-71
2022/09/07 06:10:43;;;;;;;9.55;5.25;;;;;;;17.14;100.00;100963.84;6250103;28;20631;-71
2022/09/07 06:13:45;;;;;;;8.93;5.60;;;;;;;17.16;100.00;100958.41;6249669;28;20052;-71
2022/09/07 06:16:46;;;;;;;7.78;5.28;;;;;;;17.20;100.00;100959.84;6250442;28;20053;-70
2022/09/07 06:19:49;;;;;;;9.85;5.47;;;;;;;17.23;100.00;100962.28;6249903;28;20058;-71
2022/09/07 06:22:50;;;;;;;12.60;5.35;;;;;;;17.30;100.00;100962.63;6250149;28;20046;-71
2022/09/07 06:25:51;;;;;;;7.15;4.43;;;;;;;17.33;100.00;100967.72;6249635;28;20558;-71
2022/09/07 06:28:53;;;;;;;8.23;5.32;;;;;;;17.34;100.00;100967.59;6250108;28;20053;-71
2022/09/07 06:31:54;;;;;;;12.98;5.32;;;;;;;17.35;100.00;100963.13;6249509;28;20049;-71
2022/09/07 06:34:56;;;;;;;6.97;5.38;;;;;;;17.36;100.00;100959.50;6249206;28;20049;-72
2022/09/07 06:37:58;;;;;;;7.53;5.28;;;;;;;17.45;100.00;100958.78;6249933;28;20049;-72
2022/09/07 06:41:04;;;;;;;9.43;5.35;;;;;;;17.50;100.00;100956.63;6248069;28;20049;-72
2022/09/07 06:44:05;;;;;;;8.88;5.47;;;;;;;17.55;100.00;100951.78;6249089;28;20045;-72
2022/09/07 06:47:06;;;;;;;12.50;5.43;;;;;;;17.57;100.00;100947.16;6249550;28;20050;-71
2022/09/07 06:50:11;;;;;;;9.05;5.68;;;;;;;17.63;100.00;100957.34;6249201;28;20058;-72
2022/09/07 06:53:12;;;;;;;9.43;5.50;;;;;;;17.69;100.00;100969.28;6249189;28;20049;-72
2022/09/07 06:56:15;;;;;;;7.43;4.90;;;;;;;17.73;100.00;100976.06;6249616;28;20053;-72
2022/09/07 06:59:17;;;;;;;7.05;4.85;;;;;;;17.79;100.00;100980.06;6249509;28;20052;-72
2022/09/07 07:02:18;;;;;;;7.95;5.63;;;;;;;17.82;100.00;100991.28;6249102;28;20497;-71
2022/09/07 07:05:21;;;;;;;5.60;4.10;;;;;;;17.85;100.00;100991.06;6248577;28;20057;-71
2022/09/07 07:08:25;;;;;;;8.38;4.47;;;;;;;17.90;100.00;100999.50;6249031;28;20050;-72
2022/09/07 07:11:27;;;;;;;7.28;4.55;;;;;;;17.98;100.00;100998.88;6248624;28;20052;-72
2022/09/07 07:14:28;;;;;;;7.45;5.10;;;;;;;18.00;100.00;100997.78;6248262;28;20049;-72
2022/09/07 07:17:29;;;;;;;7.22;5.47;;;;;;;18.05;100.00;101012.53;6248955;28;20046;-72
2022/09/07 07:20:34;;;;;;;9.77;6.00;;;;;;;18.10;100.00;101018.34;6248450;28;20057;-72
2022/09/07 07:23:36;;;;;;;8.70;3.95;;;;;;;18.14;100.00;101025.94;6248687;28;20406;-72
2022/09/07 07:26:39;;;;;;;8.88;4.95;;;;;;;18.20;100.00;101019.28;6248259;28;20057;-72
2022/09/07 07:29:40;;;;;;;6.95;4.32;;;;;;;18.25;100.00;101025.91;6248336;28;20501;-72
2022/09/07 07:32:41;;;;;;;7.80;4.57;;;;;;;18.31;100.00;101023.75;6248297;28;20083;-72
2022/09/07 07:35:44;;;;;;;6.45;4.45;;;;;;;18.37;100.00;101031.22;6248153;28;20505;-75
2022/09/07 07:38:47;;;;;;;7.10;4.50;;;;;;;18.40;100.00;101033.63;6248280;28;20072;-75
2022/09/07 07:41:48;;;;;;;4.43;3.17;;;;;;;18.44;100.00;101029.72;6247963;28;20050;-73
2022/09/07 07:44:50;;;;;;;8.85;4.40;;;;;;;18.48;100.00;101037.31;6247669;28;20497;-73
2022/09/07 07:47:51;;;;;;;6.70;4.47;;;;;;;18.49;100.00;101044.38;6248216;28;20124;-72
2022/09/07 07:50:59;;;;;;;7.82;4.32;;;;;;;18.54;100.00;101044.00;6247410;28;20461;-73
2022/09/07 07:54:00;;;;;;;8.55;5.53;;;;;;;18.60;100.00;101048.81;6247354;28;20198;-73
2022/09/07 07:57:02;;;;;;;6.30;4.32;;;;;;;18.66;100.00;101050.09;6248034;28;20049;-73
2022/09/07 08:00:05;;;;;;;6.35;4.57;;;;;;;18.70;100.00;101062.22;6247240;28;20424;-74
2022/09/07 08:03:06;;;;;;;7.72;4.70;;;;;;;18.79;100.00;101065.94;6247959;28;20511;-74
2022/09/07 08:06:12;;;;;;;12.27;5.53;;;;;;;18.86;100.00;101062.66;6247281;28;20063;-74
2022/09/07 08:09:13;;;;;;;6.88;4.10;;;;;;;18.93;100.00;101062.97;6247589;28;20143;-73
2022/09/07 08:12:17;;;;;;;7.85;5.28;;;;;;;18.94;100.00;101056.66;6247114;28;20420;-75
2022/09/07 08:15:18;;;;;;;6.63;5.03;;;;;;;18.96;100.00;101065.41;6247067;28;20049;-74
2022/09/07 08:18:20;;;;;;;7.45;5.07;;;;;;;18.99;100.00;101073.97;6247240;28;20068;-74
2022/09/07 08:21:22;;;;;;;7.50;4.78;;;;;;;19.05;100.00;101063.78;6247011;28;20045;-74
2022/09/07 08:24:24;;;;;;;9.00;5.50;;;;;;;19.10;100.00;101067.75;6246797;28;20076;-72
2022/09/07 08:27:26;;;;;;;8.25;4.75;;;;;;;19.10;100.00;101066.91;6247361;28;20053;-74
2022/09/07 08:30:28;;;;;;;5.88;4.15;;;;;;;19.14;100.00;101071.00;6246906;28;20054;-74
2022/09/07 08:33:29;;;;;;;7.22;4.80;;;;;;;19.16;100.00;101061.88;6246889;28;20050;-73
2022/09/07 08:36:32;;;;;;;7.07;4.85;;;;;;;19.17;100.00;101052.09;6247058;28;20056;-75
2022/09/07 08:39:34;;;;;;;5.43;3.85;;;;;;;19.20;100.00;101058.00;6246935;28;20139;-75
2022/09/07 08:42:50;;;;;;;7.57;3.58;;;;;;;19.25;100.00;101045.13;6246514;28;20056;-75
2022/09/07 08:45:57;;;;;;;5.13;3.60;;;;;;;19.30;100.00;101051.88;6261527;23;20076;-78
2022/09/07 08:49:01;;;;;;;5.47;3.65;;;;;;;19.34;100.00;101047.97;6237976;28;20053;-73
2022/09/07 08:52:08;;;;;;;4.93;3.28;;;;;;;19.41;100.00;101043.81;6223873;28;20513;-73
2022/09/07 08:55:14;;;;;;;6.60;4.07;;;;;;;19.48;100.00;101035.19;6246953;28;20390;-72
2022/09/07 08:58:20;;;;;;;4.50;3.45;;;;;;;19.59;100.00;101038.75;6247765;28;20084;-72
2022/09/07 09:01:30;;;;;;;4.53;3.20;;;;;;;19.64;100.00;101036.53;6247955;28;20091;-72
2022/09/07 09:04:34;;;;;;;4.70;3.53;;;;;;;19.70;100.00;101041.34;6247096;28;20049;-73
2022/09/07 09:07:42;;;;;;;4.93;3.10;;;;;;;19.82;100.00;101048.28;6248010;28;20057;-73
2022/09/07 09:10:55;;;;;;;5.70;3.83;;;;;;;19.95;100.00;101053.38;6247780;28;20049;-72
2022/09/07 09:14:04;;;;;;;6.03;3.85;;;;;;;20.04;100.00;101060.56;6247430;28;20433;-71
2022/09/07 09:17:10;;;;;;;4.75;3.38;;;;;;;20.10;100.00;101060.03;6247256;28;20042;-71
2022/09/07 09:20:21;;;;;;;5.95;3.17;;;;;;;20.19;100.00;101047.69;6248660;28;20045;-72
2022/09/07 09:23:26;;;;;;;5.03;3.75;;;;;;;20.23;100.00;101044.59;6247310;28;20052;-72
2022/09/07 09:26:30;;;;;;;4.10;2.78;;;;;;;20.28;100.00;101042.38;6246436;28;20045;-72
2022/09/07 09:29:33;;;;;;;4.18;2.90;;;;;;;20.36;100.00;101046.19;6246504;28;20049;-72
2022/09/07 09:32:38;;;;;;;5.75;3.10;;;;;;;20.45;98.70;101046.19;6246307;28;20053;-72
2022/09/07 09:35:40;;;;;;;5.40;2.22;;;;;;;20.56;95.12;101049.75;6246006;28;20103;-71
2022/09/07 09:38:43;;;;;;;4.55;2.28;;;;;;;20.64;95.22;101045.41;6246788;28;20060;-71
2022/09/07 09:41:44;;;;;;;3.97;2.42;;;;;;;20.73;95.58;101046.41;6246234;28;20058;-71
2022/09/07 09:44:46;;;;;;;2.00;1.60;;;;;;;20.83;94.70;101041.88;6246047;28;20061;-72
2022/09/07 09:47:50;;;;;;;4.43;2.58;;;;;;;20.98;94.21;101034.28;6245942;28;20049;-73
2022/09/07 09:50:54;;;;;;;3.85;2.45;;;;;;;21.10;90.74;101043.00;6245875;28;20054;-76
2022/09/07 09:54:04;;;;;;;2.53;1.80;;;;;;;21.19;90.20;101034.13;6245842;28;20050;-73
2022/09/07 09:57:06;;;;;;;3.30;1.90;;;;;;;21.31;90.23;101034.81;6246100;28;20049;-73
2022/09/07 10:00:15;;;;;;;3.13;1.60;;;;;;;21.46;89.30;101038.72;6246108;28;20077;-73
2022/09/07 10:03:18;;;;;;;4.13;1.95;;;;;;;21.53;86.03;101040.69;6245936;28;20053;-72
2022/09/07 10:06:19;;;;;;;2.05;1.40;;;;;;;21.61;85.62;101037.25;6245463;28;20049;-72
2022/09/07 10:09:26;;;;;;;3.22;2.00;;;;;;;21.60;83.92;101032.06;6245770;28;20482;-71
2022/09/07 10:12:31;;;;;;;1.88;1.42;;;;;;;21.59;83.32;101025.88;6245783;28;20053;-72
2022/09/07 10:15:35;;;;;;;2.80;1.65;;;;;;;21.52;81.83;101019.41;6247008;28;20493;-73
2022/09/07 10:18:39;;;;;;;2.47;1.40;;;;;;;21.55;83.10;101016.47;6250338;28;20042;-73
2022/09/07 10:21:56;;;;;;;2.50;1.48;;;;;;;21.61;83.59;101010.50;6249956;28;20049;-73
2022/09/07 10:25:00;;;;;;;2.05;1.60;;;;;;;21.65;84.31;101016.41;6250051;28;20057;-73
2022/09/07 10:28:04;;;;;;;1.58;1.48;;;;;;;21.72;84.64;101017.53;6250421;28;20136;-72
2022/09/07 10:31:12;;;;;;;2.22;1.63;;;;;;;21.78;84.14;101017.78;6250460;28;20061;-72
2022/09/07 10:34:23;;;;;;;3.80;1.38;;;;;;;21.87;82.59;101018.72;6250001;28;20583;-71
2022/09/07 10:37:39;;;;;;;2.38;1.42;;;;;;;21.98;82.33;101012.31;6250720;28;20053;-72
2022/09/07 10:40:44;;;;;;;4.88;1.42;;;;;;;22.02;81.27;101008.34;6249910;28;20045;-72
2022/09/07 10:43:48;;;;;;;2.10;1.13;;;;;;;22.09;80.66;101011.28;6249944;28;20049;-72
2022/09/07 10:46:55;;;;;;;2.20;1.52;;;;;;;22.15;79.79;101003.50;6250355;28;20115;-72
2022/09/07 10:50:03;;;;;;;2.88;1.40;;;;;;;22.21;79.03;101008.28;6249726;28;20041;-71
2022/09/07 10:53:29;;;;;;;2.70;1.20;;;;;;;22.25;78.83;101003.44;6249899;28;20057;-70
2022/09/07 10:56:40;;;;;;;2.85;1.38;;;;;;;22.25;79.12;101001.59;6249126;28;20842;-71
2022/09/07 10:59:50;;;;;;;1.52;1.25;;;;;;;22.35;78.83;101004.25;6249069;28;20049;-72
2022/09/07 11:03:23;;;;;;;1.77;1.42;;;;;;;22.43;77.82;101006.13;6244316;28;20061;-73
2022/09/07 11:06:32;;;;;;;1.42;1.25;;;;;;;22.53;77.56;101010.44;6225303;28;20072;-72
2022/09/07 11:09:59;;;;;;;1.58;1.08;;;;;;;22.56;76.70;101006.59;6224485;28;20053;-72
2022/09/07 11:13:05;;;;;;;1.33;1.20;;;;;;;22.65;75.52;101013.72;6214694;28;20141;-73
2022/09/07 11:16:13;;;;;;;1.30;1.15;;;;;;;22.62;75.41;101006.00;6223956;28;20053;-73
2022/09/07 11:19:20;;;;;;;1.15;0.95;;;;;;;22.57;75.48;101002.09;6232838;28;20046;-72
2022/09/07 11:22:29;;;;;;;3.22;1.48;;;;;;;22.71;73.48;100990.81;6243416;28;20045;-73
2022/09/07 11:25:36;;;;;;;2.05;1.23;;;;;;;22.89;73.51;100989.00;6242117;28;20413;-73
2022/09/07 11:28:45;;;;;;;1.10;1.00;;;;;;;22.89;73.30;100980.06;6237692;28;20417;-73
2022/09/07 11:31:51;;;;;;;2.25;0.80;;;;;;;22.84;73.81;100977.84;6247972;28;20049;-73
2022/09/07 11:34:57;;;;;;;0.73;0.70;;;;;;;22.93;70.28;100979.63;6247770;28;20548;-73
2022/09/07 11:38:05;;;;;;;0.70;0.68;;;;;;;23.26;69.49;100975.34;6247431;28;20053;-74
2022/09/07 11:41:18;;;;;;;0.65;0.65;;;;;;;23.55;68.19;100966.94;6247985;28;20412;-73
2022/09/07 11:44:26;;;;;;;1.65;0.60;;;;;;;23.86;67.95;100974.47;6247948;28;20056;-72
2022/09/07 11:47:33;;;;;;;1.75;1.00;;;;;;;24.11;66.04;100982.59;6248189;28;20049;-73
2022/09/07 11:50:40;;;;;;;0.52;0.52;;;;;;;24.41;64.79;100973.13;6248018;28;20493;-74
2022/09/07 11:53:46;;;;;;;1.92;0.98;;;;;;;24.69;63.01;100970.94;6247672;28;20107;-73
2022/09/07 11:56:55;;;;;;;0.70;0.60;;;;;;;25.02;62.49;100961.81;6248313;28;20049;-72
2022/09/07 12:00:04;;;;;;;0.77;0.70;;;;;;;25.20;62.79;100960.81;6248079;28;20049;-73
2022/09/07 12:03:31;;;;;;;1.02;0.80;;;;;;;25.28;61.41;100966.19;6247881;28;20053;-73
2022/09/07 12:06:59;;;;;;;0.70;0.68;;;;;;;25.30;61.33;100964.19;6247892;28;20053;-74
2022/09/07 12:10:23;;;;;;;1.00;0.90;;;;;;;24.99;61.02;100966.72;6247737;28;20613;-73
2022/09/07 12:13:54;;;;;;;0.73;0.73;;;;;;;25.33;60.65;100955.75;6240849;28;20060;-71
2022/09/07 12:17:14;;;;;;;1.60;0.88;;;;;;;25.60;59.72;100953.63;6248078;28;20049;-73
2022/09/07 12:20:17;;;;;;;1.70;0.88;;;;;;;25.70;60.25;100955.09;6247235;28;20045;-72
2022/09/07 12:23:23;;;;;;;1.27;0.50;;;;;;;25.61;58.94;100948.06;6247514;28;20045;-73
2022/09/07 12:26:49;;;;;;;1.08;0.80;;;;;;;25.60;59.54;100945.56;6245356;28;20049;-75
2022/09/07 12:30:13;;;;;;;0.90;0.73;;;;;;;25.53;59.34;100942.75;6247254;28;20049;-73
2022/09/07 12:33:26;;;;;;;0.77;0.68;;;;;;;25.84;58.84;100936.53;6246872;28;20049;-74
2022/09/07 12:36:46;;;;;;;1.23;0.85;;;;;;;26.38;57.09;100931.97;6247005;28;20045;-74
2022/09/07 12:39:48;;;;;;;1.63;0.73;;;;;;;26.66;53.94;100929.59;6246777;28;20053;-71
2022/09/07 12:42:50;;;;;;;1.27;0.65;;;;;;;26.76;53.37;100930.16;6247363;28;20184;-73
2022/09/07 12:45:53;;;;;;;0.68;0.68;;;;;;;26.89;53.00;100932.25;6246429;28;20512;-74
2022/09/07 12:49:05;;;;;;;0.57;0.50;;;;;;;27.04;51.78;100929.56;6243642;28;20135;-74
2022/09/07 12:52:30;;;;;;;0.93;0.70;;;;;;;27.04;50.44;100926.84;6242368;28;20053;-73
2022/09/07 12:55:55;;;;;;;0.55;0.55;;;;;;;27.27;51.95;100935.72;6246361;28;20056;-72
2022/09/07 12:59:13;;;;;;;1.08;0.60;;;;;;;26.32;53.26;100930.00;6230766;28;20483;-73
2022/09/07 13:02:37;;;;;;;4.23;0.70;;;;;;;25.75;56.03;100924.94;6231660;28;20049;-74
2022/09/07 13:05:54;;;;;;;2.25;1.02;;;;;;;25.84;56.30;100923.91;6246172;28;20053;-74
2022/09/07 13:09:13;;;;;;;1.20;0.60;;;;;;;26.42;55.34;100927.06;6226559;28;20417;-74
2022/09/07 13:12:29;;;;;;;0.80;0.57;;;;;;;26.84;53.99;100921.13;6238344;28;20050;-74
2022/09/07 13:15:42;;;;;;;0.70;0.70;;;;;;;26.82;53.22;100917.81;6246007;28;20054;-74
2022/09/07 13:18:45;;;;;;;0.55;0.55;;;;;;;26.58;52.85;100924.28;6246701;28;20049;-74
2022/09/07 13:21:48;;;;;;;1.67;0.70;;;;;;;26.61;52.92;100925.75;6237865;28;20045;-73
2022/09/07 13:24:51;;;;;;;1.33;0.60;;;;;;;26.53;52.61;100927.50;6246150;28;20060;-74
2022/09/07 13:27:56;;;;;;;0.40;0.40;;;;;;;26.09;54.13;100927.31;6239878;28;20489;-74
2022/09/07 13:31:23;;;;;;;0.68;0.68;;;;;;;25.92;55.20;100921.19;6243277;28;20046;-73
2022/09/07 13:34:45;;;;;;;1.08;0.55;;;;;;;26.13;54.96;100917.03;6239205;28;20053;-77
2022/09/07 13:37:53;;;;;;;0.88;0.60;;;;;;;26.40;53.96;100911.09;6246197;28;20072;-75
2022/09/07 13:40:59;;;;;;;0.60;0.52;;;;;;;26.57;53.88;100917.19;6248407;28;20046;-76
2022/09/07 13:44:02;;;;;;;1.60;0.60;;;;;;;26.56;53.99;100913.66;6242710;28;20049;-75
2022/09/07 13:47:12;;;;;;;0.68;0.50;;;;;;;26.50;53.22;100916.25;6246210;28;20054;-75
2022/09/07 13:50:23;;;;;;;0.55;0.55;;;;;;;26.54;53.68;100915.69;6242304;28;20556;-75
2022/09/07 13:53:42;;;;;;;0.30;0.30;;;;;;;26.55;54.64;100906.59;6240784;28;20051;-74
2022/09/07 13:56:51;;;;;;;;;;;;;;;26.51;53.69;100915.22;6236125;28;20042;-75
2022/09/07 13:59:52;;;;;;;1.92;0.90;;;;;;;26.34;53.42;100910.94;6242108;28;20392;-74
2022/09/07 14:02:54;;;;;;;0.63;0.45;;;;;;;26.29;54.77;100911.50;6239834;28;20049;-76
2022/09/07 14:06:27;;;;;;;0.55;0.55;;;;;;;26.61;53.38;100905.00;6241654;28;20505;-76
2022/09/07 14:09:30;;;;;;;0.80;0.70;;;;;;;27.01;53.04;100911.84;6248035;28;20485;-76
2022/09/07 14:12:32;;;;;;;0.95;0.65;;;;;;;27.14;52.32;100899.63;6234696;28;20049;-76
2022/09/07 14:15:38;;;;;;;0.77;0.60;;;;;;;26.66;52.46;100899.94;6244342;28;20049;-75
2022/09/07 14:18:39;;;;;;;0.95;0.82;;;;;;;26.59;53.16;100901.69;6250477;28;20053;-75
2022/09/07 14:21:41;;;;;;;0.50;0.50;;;;;;;26.92;52.61;100901.34;6249855;28;20049;-75